createdAt,value
2023-02-17T00:01:30.858Z,100.00
2023-02-17T00:03:57.971Z,100.00
2023-02-17T00:06:27.797Z,100.00
2023-02-17T00:08:55.017Z,100.00
2023-02-17T00:11:21.820Z,100.00
2023-02-17T00:13:48.722Z,100.00
2023-02-17T00:16:21.707Z,100.00
2023-02-17T00:18:53.353Z,100.00
2023-02-17T00:21:22.797Z,100.00
2023-02-17T00:23:50.211Z,100.00
2023-02-17T00:26:18.370Z,100.00
2023-02-17T00:28:45.859Z,100.00
2023-02-17T00:31:19.306Z,100.00
2023-02-17T00:33:46.946Z,100.00
2023-02-17T00:36:20.366Z,100.00
2023-02-17T00:38:48.623Z,100.00
2023-02-17T00:41:17.231Z,100.00
2023-02-17T00:43:43.985Z,100.00
2023-02-17T00:46:10.838Z,100.00
2023-02-17T00:48:37.632Z,100.00
2023-02-17T00:51:04.482Z,100.00
2023-02-17T00:53:31.418Z,100.00
2023-02-17T00:55:58.162Z,100.00
2023-02-17T00:58:25.214Z,100.00
2023-02-17T01:00:52.136Z,100.00
2023-02-17T01:03:19.484Z,100.00
2023-02-17T01:05:48.489Z,100.00
2023-02-17T01:08:16.697Z,100.00
2023-02-17T01:10:46.161Z,100.00
2023-02-17T01:13:13.927Z,100.00
2023-02-17T01:15:46.999Z,100.00
2023-02-17T01:18:14.606Z,100.00
2023-02-17T01:20:42.434Z,100.00
2023-02-17T01:23:10.970Z,100.00
2023-02-17T01:25:42.342Z,100.00
2023-02-17T01:28:14.375Z,100.00
2023-02-17T01:30:41.200Z,100.00
2023-02-17T01:33:07.872Z,100.00
2023-02-17T01:35:34.952Z,100.00
2023-02-17T01:38:02.003Z,100.00
2023-02-17T01:40:28.667Z,100.00
2023-02-17T01:42:55.343Z,100.00
2023-02-17T01:45:21.900Z,100.00
2023-02-17T01:47:57.670Z,100.00
2023-02-17T01:50:30.747Z,100.00
2023-02-17T01:52:59.329Z,100.00
2023-02-17T01:55:27.173Z,100.00
2023-02-17T01:57:58.622Z,100.00
2023-02-17T02:00:27.670Z,100.00
2023-02-17T02:02:54.877Z,100.00
2023-02-17T02:05:22.481Z,100.00
2023-02-17T02:07:50.425Z,100.00
2023-02-17T02:10:18.393Z,100.00
2023-02-17T02:12:45.378Z,100.00
2023-02-17T02:15:18.502Z,100.00
2023-02-17T02:18:00.454Z,100.00
2023-02-17T02:20:45.303Z,100.00
2023-02-17T02:23:36.585Z,100.00
2023-02-17T02:26:40.729Z,100.00
2023-02-17T02:29:19.505Z,100.00
2023-02-17T02:32:07.522Z,100.00
2023-02-17T02:34:53.579Z,100.00
2023-02-17T02:37:36.972Z,100.00
2023-02-17T02:40:07.657Z,100.00
2023-02-17T02:42:35.537Z,100.00
2023-02-17T02:45:05.368Z,100.00
2023-02-17T02:47:49.266Z,100.00
2023-02-17T02:50:19.262Z,100.00
2023-02-17T02:52:51.512Z,100.00
2023-02-17T02:55:42.470Z,100.00
2023-02-17T02:58:25.530Z,100.00
2023-02-17T03:01:04.002Z,100.00
2023-02-17T03:03:56.809Z,100.00
2023-02-17T03:06:42.541Z,100.00
2023-02-17T03:09:18.263Z,100.00
2023-02-17T03:11:46.581Z,100.00
2023-02-17T03:14:16.675Z,100.00
2023-02-17T03:16:44.124Z,100.00
2023-02-17T03:19:13.766Z,100.00
2023-02-17T03:21:55.467Z,100.00
2023-02-17T03:24:22.134Z,100.00
2023-02-17T03:26:48.802Z,100.00
2023-02-17T03:29:15.555Z,100.00
2023-02-17T03:31:42.647Z,100.00
2023-02-17T03:34:09.427Z,100.00
2023-02-17T03:36:36.229Z,100.00
2023-02-17T03:39:03.338Z,100.00
2023-02-17T03:41:30.037Z,100.00
2023-02-17T03:43:56.710Z,100.00
2023-02-17T03:46:23.456Z,100.00
2023-02-17T03:48:50.165Z,100.00
2023-02-17T03:51:22.634Z,100.00
2023-02-17T03:53:50.571Z,100.00
2023-02-17T03:56:18.502Z,100.00
2023-02-17T03:58:45.767Z,100.00
2023-02-17T04:01:13.241Z,100.00
2023-02-17T04:03:40.993Z,100.00
2023-02-17T04:06:08.854Z,100.00
2023-02-17T04:08:35.960Z,100.00
2023-02-17T04:11:04.580Z,100.00
2023-02-17T04:13:32.099Z,100.00
2023-02-17T04:16:01.327Z,100.00
2023-02-17T04:18:28.726Z,100.00
2023-02-17T04:20:55.408Z,100.00
2023-02-17T04:23:22.173Z,100.00
2023-02-17T04:25:48.967Z,100.00
2023-02-17T04:28:16.616Z,100.00
2023-02-17T04:30:48.037Z,100.00
2023-02-17T04:33:15.606Z,100.00
2023-02-17T04:35:42.459Z,100.00
2023-02-17T04:38:10.663Z,100.00
2023-02-17T04:40:38.314Z,100.00
2023-02-17T04:43:05.323Z,100.00
2023-02-17T04:45:32.482Z,100.00
2023-02-17T04:47:59.212Z,100.00
2023-02-17T04:50:25.937Z,100.00
2023-02-17T04:52:52.689Z,100.00
2023-02-17T04:55:19.603Z,100.00
2023-02-17T04:57:46.358Z,100.00
2023-02-17T05:00:13.467Z,100.00
2023-02-17T05:02:40.152Z,100.00
2023-02-17T05:05:07.291Z,100.00
2023-02-17T05:07:34.339Z,100.00
2023-02-17T05:10:01.006Z,100.00
2023-02-17T05:12:27.750Z,100.00
2023-02-17T05:14:54.423Z,100.00
2023-02-17T05:17:21.145Z,100.00
2023-02-17T05:19:47.880Z,100.00
2023-02-17T05:22:14.521Z,100.00
2023-02-17T05:24:41.185Z,100.00
2023-02-17T05:27:07.900Z,100.00
2023-02-17T05:29:34.672Z,100.00
2023-02-17T05:32:01.407Z,100.00
2023-02-17T05:34:28.279Z,100.00
2023-02-17T05:36:54.976Z,100.00
2023-02-17T05:39:21.619Z,100.00
2023-02-17T05:41:48.338Z,100.00
2023-02-17T05:44:15.204Z,100.00
2023-02-17T05:46:41.940Z,100.00
2023-02-17T05:49:08.765Z,100.00
2023-02-17T05:51:35.441Z,100.00
2023-02-17T05:54:02.426Z,100.00
2023-02-17T05:56:29.426Z,100.00
2023-02-17T05:58:56.082Z,100.00
2023-02-17T06:01:22.868Z,100.00
2023-02-17T06:03:49.579Z,100.00
2023-02-17T06:06:16.220Z,100.00
2023-02-17T06:08:42.874Z,100.00
2023-02-17T06:11:09.680Z,100.00
2023-02-17T06:13:36.766Z,100.00
2023-02-17T06:16:04.284Z,100.00
2023-02-17T06:18:31.258Z,100.00
2023-02-17T06:20:58.703Z,100.00
2023-02-17T06:23:26.626Z,100.00
2023-02-17T06:25:54.199Z,100.00
2023-02-17T06:28:20.970Z,100.00
2023-02-17T06:30:47.694Z,100.00
2023-02-17T06:33:14.363Z,100.00
2023-02-17T06:35:41.166Z,100.00
2023-02-17T06:38:07.867Z,100.00
2023-02-17T06:40:34.608Z,100.00
2023-02-17T06:43:01.276Z,100.00
2023-02-17T06:45:28.009Z,100.00
2023-02-17T06:47:55.642Z,100.00
2023-02-17T06:50:22.446Z,100.00
2023-02-17T06:52:49.129Z,100.00
2023-02-17T06:55:16.077Z,100.00
2023-02-17T06:57:42.747Z,100.00
2023-02-17T07:00:09.758Z,100.00
2023-02-17T07:02:40.588Z,100.00
2023-02-17T07:05:08.227Z,100.00
2023-02-17T07:07:34.957Z,100.00
2023-02-17T07:10:01.718Z,100.00
2023-02-17T07:12:29.228Z,100.00
2023-02-17T07:14:56.021Z,100.00
2023-02-17T07:17:22.881Z,100.00
2023-02-17T07:19:49.600Z,100.00
2023-02-17T07:22:16.266Z,100.00
2023-02-17T07:24:42.984Z,100.00
2023-02-17T07:27:10.872Z,100.00
2023-02-17T07:29:37.700Z,100.00
2023-02-17T07:32:04.760Z,100.00
2023-02-17T07:34:31.459Z,100.00
2023-02-17T07:36:58.167Z,100.00
2023-02-17T07:39:24.894Z,100.00
2023-02-17T07:41:51.746Z,100.00
2023-02-17T07:44:18.545Z,100.00
2023-02-17T07:46:45.271Z,100.00
2023-02-17T07:49:12.322Z,100.00
2023-02-17T07:51:39.084Z,100.00
2023-02-17T07:54:05.887Z,100.00
2023-02-17T07:56:33.843Z,100.00
2023-02-17T07:59:00.574Z,100.00
2023-02-17T08:01:27.387Z,100.00
2023-02-17T08:03:54.281Z,100.00
2023-02-17T08:06:24.299Z,100.00
2023-02-17T08:09:11.172Z,100.00
2023-02-17T08:11:56.777Z,100.00
2023-02-17T08:14:26.353Z,100.00
2023-02-17T08:16:53.536Z,100.00
2023-02-17T08:19:21.278Z,100.00
2023-02-17T08:21:48.299Z,100.00
2023-02-17T08:24:16.482Z,100.00
2023-02-17T08:26:43.208Z,100.00
2023-02-17T08:29:10.009Z,100.00
2023-02-17T08:31:37.689Z,100.00
2023-02-17T08:34:07.053Z,100.00
2023-02-17T08:36:35.113Z,100.00
2023-02-17T08:39:01.960Z,100.00
2023-02-17T08:41:36.842Z,100.00
2023-02-17T08:44:08.119Z,100.00
2023-02-17T08:46:36.408Z,100.00
2023-02-17T08:49:04.226Z,100.00
2023-02-17T08:51:30.962Z,100.00
2023-02-17T08:54:00.637Z,100.00
2023-02-17T08:56:28.584Z,100.00
2023-02-17T08:58:56.337Z,100.00
2023-02-17T09:01:23.671Z,100.00
2023-02-17T09:03:52.400Z,100.00
2023-02-17T09:06:19.802Z,100.00
2023-02-17T09:08:46.492Z,100.00
2023-02-17T09:11:15.515Z,100.00
2023-02-17T09:13:42.448Z,100.00
2023-02-17T09:16:09.729Z,100.00
2023-02-17T09:18:36.869Z,100.00
2023-02-17T09:21:09.566Z,100.00
2023-02-17T09:23:36.353Z,100.00
2023-02-17T09:26:06.295Z,100.00
2023-02-17T09:28:33.932Z,100.00
2023-02-17T09:31:09.635Z,100.00
2023-02-17T09:33:36.976Z,100.00
2023-02-17T09:36:05.865Z,100.00
2023-02-17T09:38:32.835Z,100.00
2023-02-17T09:41:19.028Z,100.00
2023-02-17T09:43:46.164Z,97.28
2023-02-17T09:46:20.959Z,89.96
2023-02-17T09:48:49.826Z,95.95
2023-02-17T09:51:30.501Z,90.84
2023-02-17T09:54:06.314Z,98.63
2023-02-17T09:56:37.155Z,90.23
2023-02-17T09:59:19.811Z,80.73
2023-02-17T10:01:48.725Z,70.13
2023-02-17T10:04:23.192Z,65.70
2023-02-17T10:07:06.112Z,62.60
2023-02-17T10:09:58.663Z,61.22
2023-02-17T10:12:30.524Z,61.54
2023-02-17T10:15:36.396Z,60.46
2023-02-17T10:18:35.947Z,59.81
2023-02-17T10:21:13.162Z,60.37
2023-02-17T10:23:40.152Z,61.51
2023-02-17T10:26:12.911Z,61.42
2023-02-17T10:29:03.797Z,61.31
2023-02-17T10:31:42.715Z,61.73
2023-02-17T10:34:40.225Z,59.02
2023-02-17T10:37:33.190Z,57.15
2023-02-17T10:40:01.716Z,56.11
2023-02-17T10:42:34.115Z,56.14
2023-02-17T10:45:05.858Z,54.31
2023-02-17T10:47:37.049Z,55.39
2023-02-17T10:50:08.244Z,53.68
2023-02-17T10:52:40.548Z,53.79
2023-02-17T10:55:23.253Z,53.43
2023-02-17T10:57:58.863Z,52.51
2023-02-17T11:00:26.891Z,51.59
2023-02-17T11:02:54.400Z,50.28
2023-02-17T11:05:33.429Z,50.24
2023-02-17T11:08:05.834Z,49.32
2023-02-17T11:10:38.004Z,48.55
2023-02-17T11:13:27.148Z,47.38
2023-02-17T11:15:54.016Z,48.97
2023-02-17T11:18:26.397Z,48.94
2023-02-17T11:21:01.490Z,48.87
2023-02-17T11:23:28.593Z,48.11
2023-02-17T11:26:09.162Z,48.63
2023-02-17T11:28:36.238Z,48.55
2023-02-17T11:31:04.876Z,49.57
2023-02-17T11:33:38.994Z,47.62
2023-02-17T11:36:08.228Z,47.34
2023-02-17T11:38:45.280Z,47.54
2023-02-17T11:41:12.193Z,47.16
2023-02-17T11:43:39.927Z,48.14
2023-02-17T11:46:17.974Z,48.06
2023-02-17T11:48:52.701Z,48.19
2023-02-17T11:51:53.107Z,47.82
2023-02-17T11:54:41.450Z,47.93
2023-02-17T11:57:20.047Z,49.11
2023-02-17T12:00:14.527Z,48.50
2023-02-17T12:03:16.718Z,47.80
2023-02-17T12:06:16.500Z,46.99
2023-02-17T12:08:52.484Z,45.55
2023-02-17T12:11:37.642Z,46.26
2023-02-17T12:14:43.731Z,45.35
2023-02-17T12:17:28.436Z,44.88
2023-02-17T12:20:22.631Z,43.70
2023-02-17T12:23:15.245Z,45.39
2023-02-17T12:25:56.125Z,45.38
2023-02-17T12:29:06.950Z,46.37
2023-02-17T12:31:45.876Z,46.38
2023-02-17T12:34:29.122Z,46.51
2023-02-17T12:36:57.609Z,45.61
2023-02-17T12:40:16.691Z,44.06
2023-02-17T12:42:53.955Z,44.30
2023-02-17T12:45:24.152Z,44.36
2023-02-17T12:47:58.552Z,43.98
2023-02-17T12:50:35.860Z,43.48
2023-02-17T12:53:11.928Z,44.18
2023-02-17T12:55:53.433Z,44.33
2023-02-17T12:58:25.297Z,44.48
2023-02-17T13:00:57.534Z,44.03
2023-02-17T13:03:25.002Z,44.57
2023-02-17T13:06:05.946Z,45.39
2023-02-17T13:08:58.041Z,45.58
2023-02-17T13:11:29.235Z,45.14
2023-02-17T13:13:56.013Z,45.57
2023-02-17T13:16:23.301Z,45.66
2023-02-17T13:18:52.326Z,45.31
2023-02-17T13:21:26.439Z,43.39
2023-02-17T13:24:16.791Z,43.85
2023-02-17T13:26:44.893Z,44.20
2023-02-17T13:29:34.059Z,44.03
2023-02-17T13:32:04.129Z,43.63
2023-02-17T13:34:43.471Z,42.79
2023-02-17T13:37:32.666Z,42.89
2023-02-17T13:40:01.466Z,42.85
2023-02-17T13:42:39.822Z,43.48
2023-02-17T13:45:27.491Z,43.80
2023-02-17T13:47:59.524Z,42.80
2023-02-17T13:50:37.858Z,42.55
2023-02-17T13:53:24.356Z,43.00
2023-02-17T13:55:52.340Z,43.14
2023-02-17T13:58:31.449Z,43.39
2023-02-17T14:00:59.606Z,43.22
2023-02-17T14:03:40.113Z,43.13
2023-02-17T14:06:11.819Z,43.26
2023-02-17T14:08:43.084Z,43.14
2023-02-17T14:11:13.288Z,42.92
2023-02-17T14:13:42.654Z,43.20
2023-02-17T14:16:28.156Z,43.15
2023-02-17T14:19:04.890Z,43.63
2023-02-17T14:21:31.867Z,42.92
2023-02-17T14:23:59.794Z,43.31
2023-02-17T14:26:30.870Z,42.90
2023-02-17T14:29:01.087Z,42.24
2023-02-17T14:31:28.730Z,42.09
2023-02-17T14:33:59.239Z,41.52
2023-02-17T14:36:30.640Z,41.55
2023-02-17T14:38:58.784Z,41.83
2023-02-17T14:41:26.144Z,42.12
2023-02-17T14:43:52.935Z,42.21
2023-02-17T14:46:20.089Z,42.34
2023-02-17T14:48:48.708Z,42.13
2023-02-17T14:51:17.879Z,42.26
2023-02-17T14:53:45.196Z,42.38
2023-02-17T14:56:30.252Z,42.51
2023-02-17T14:58:57.111Z,42.26
2023-02-17T15:01:25.806Z,42.55
2023-02-17T15:03:54.036Z,42.46
2023-02-17T15:06:30.791Z,42.20
2023-02-17T15:09:00.753Z,41.90
2023-02-17T15:11:37.596Z,42.49
2023-02-17T15:14:05.884Z,42.62
2023-02-17T15:16:33.229Z,42.25
2023-02-17T15:18:59.920Z,42.42
2023-02-17T15:21:32.349Z,42.65
2023-02-17T15:24:00.858Z,42.12
2023-02-17T15:26:29.531Z,42.09
2023-02-17T15:28:57.254Z,42.67
2023-02-17T15:31:25.557Z,42.81
2023-02-17T15:33:57.555Z,43.72
2023-02-17T15:36:25.400Z,42.87
2023-02-17T15:38:52.161Z,42.88
2023-02-17T15:41:25.949Z,43.00
2023-02-17T15:43:54.785Z,42.91
2023-02-17T15:46:26.040Z,44.04
2023-02-17T15:48:52.740Z,43.89
2023-02-17T15:51:20.035Z,43.30
2023-02-17T15:53:48.017Z,43.61
2023-02-17T15:56:21.540Z,43.02
2023-02-17T15:58:49.659Z,43.82
2023-02-17T16:01:31.377Z,44.81
2023-02-17T16:03:58.972Z,44.45
2023-02-17T16:06:27.322Z,44.95
2023-02-17T16:08:55.153Z,45.09
2023-02-17T16:11:23.530Z,44.95
2023-02-17T16:13:51.382Z,44.51
2023-02-17T16:16:21.937Z,44.69
2023-02-17T16:18:49.701Z,45.37
2023-02-17T16:21:17.123Z,44.79
2023-02-17T16:23:44.285Z,45.03
2023-02-17T16:26:27.504Z,45.52
2023-02-17T16:28:54.624Z,45.48
2023-02-17T16:31:21.845Z,45.07
2023-02-17T16:33:48.721Z,44.80
2023-02-17T16:36:18.789Z,44.38
2023-02-17T16:38:48.996Z,44.18
2023-02-17T16:41:18.025Z,44.62
2023-02-17T16:43:45.565Z,44.79
2023-02-17T16:46:38.456Z,43.85
2023-02-17T16:49:18.062Z,44.06
2023-02-17T16:51:44.822Z,45.05
2023-02-17T16:54:16.154Z,44.75
2023-02-17T16:56:48.207Z,45.14
2023-02-17T16:59:16.919Z,45.11
2023-02-17T17:01:43.723Z,45.47
2023-02-17T17:04:10.792Z,45.56
2023-02-17T17:06:42.038Z,45.81
2023-02-17T17:09:08.986Z,45.96
2023-02-17T17:11:35.618Z,46.20
2023-02-17T17:14:02.475Z,46.82
2023-02-17T17:16:33.447Z,46.40
2023-02-17T17:19:00.649Z,47.08
2023-02-17T17:21:28.103Z,47.30
2023-02-17T17:23:55.176Z,47.60
2023-02-17T17:26:32.092Z,47.71
2023-02-17T17:28:59.174Z,47.70
2023-02-17T17:31:27.134Z,47.63
2023-02-17T17:33:54.975Z,47.36
2023-02-17T17:36:50.754Z,47.49
2023-02-17T17:39:23.034Z,47.28
2023-02-17T17:41:50.930Z,47.30
2023-02-17T17:44:18.531Z,47.56
2023-02-17T17:46:45.246Z,47.59
2023-02-17T17:49:14.511Z,48.43
2023-02-17T17:51:41.412Z,48.58
2023-02-17T17:54:08.613Z,49.02
2023-02-17T17:56:39.294Z,48.60
2023-02-17T17:59:06.492Z,49.25
2023-02-17T18:01:33.641Z,48.52
2023-02-17T18:04:01.246Z,48.57
2023-02-17T18:06:27.871Z,48.99
2023-02-17T18:08:59.336Z,49.07
2023-02-17T18:11:26.062Z,49.05
2023-02-17T18:13:56.955Z,48.82
2023-02-17T18:16:26.472Z,48.81
2023-02-17T18:18:54.674Z,49.04
2023-02-17T18:21:21.636Z,49.11
2023-02-17T18:23:48.654Z,48.75
2023-02-17T18:26:15.969Z,48.58
2023-02-17T18:28:42.658Z,48.63
2023-02-17T18:31:11.948Z,49.13
2023-02-17T18:33:39.069Z,49.31
2023-02-17T18:36:10.687Z,49.29
2023-02-17T18:38:37.614Z,49.91
2023-02-17T18:41:04.945Z,49.87
2023-02-17T18:43:32.076Z,49.53
2023-02-17T18:45:59.088Z,49.64
2023-02-17T18:48:26.487Z,49.80
2023-02-17T18:50:53.317Z,49.50
2023-02-17T18:53:20.039Z,49.39
2023-02-17T18:55:46.752Z,49.48
2023-02-17T18:58:13.667Z,49.11
2023-02-17T19:00:40.423Z,48.99
2023-02-17T19:03:07.127Z,48.48
2023-02-17T19:05:33.845Z,48.88
2023-02-17T19:08:00.471Z,48.80
2023-02-17T19:10:27.174Z,48.95
2023-02-17T19:12:53.975Z,48.89
2023-02-17T19:15:21.163Z,48.82
2023-02-17T19:17:48.838Z,48.19
2023-02-17T19:20:17.160Z,48.43
2023-02-17T19:22:44.045Z,48.33
2023-02-17T19:25:10.864Z,48.27
2023-02-17T19:27:40.244Z,48.04
2023-02-17T19:30:08.854Z,48.01
2023-02-17T19:32:35.591Z,47.77
2023-02-17T19:35:02.393Z,47.38
2023-02-17T19:37:29.193Z,47.35
2023-02-17T19:39:56.089Z,47.33
2023-02-17T19:42:23.238Z,47.03
2023-02-17T19:44:49.854Z,47.47
2023-02-17T19:47:16.515Z,47.53
2023-02-17T19:49:43.164Z,47.69
2023-02-17T19:52:10.602Z,47.66
2023-02-17T19:54:37.750Z,47.59
2023-02-17T19:57:04.600Z,47.18
2023-02-17T19:59:33.647Z,47.56
2023-02-17T20:02:00.502Z,47.86
2023-02-17T20:04:27.349Z,48.62
2023-02-17T20:06:54.312Z,48.96
2023-02-17T20:09:22.347Z,49.63
2023-02-17T20:11:50.375Z,49.76
2023-02-17T20:14:17.057Z,50.49
2023-02-17T20:16:43.872Z,50.66
2023-02-17T20:19:10.615Z,51.67
2023-02-17T20:21:38.667Z,54.16
2023-02-17T20:24:05.840Z,60.10
2023-02-17T20:26:39.190Z,65.40
2023-02-17T20:29:06.108Z,78.93
2023-02-17T20:31:35.693Z,90.97
2023-02-17T20:34:04.627Z,94.62
2023-02-17T20:36:32.033Z,94.43
2023-02-17T20:38:59.124Z,99.37
2023-02-17T20:41:26.067Z,100.00
2023-02-17T20:43:52.878Z,94.32
2023-02-17T20:46:27.823Z,94.16
2023-02-17T20:48:55.180Z,85.78
2023-02-17T20:51:21.980Z,81.55
2023-02-17T20:53:48.770Z,80.22
2023-02-17T20:56:18.695Z,79.71
2023-02-17T20:58:46.114Z,79.00
2023-02-17T21:01:12.981Z,95.28
2023-02-17T21:03:39.853Z,100.00
2023-02-17T21:06:19.045Z,92.40
2023-02-17T21:08:45.774Z,79.32
2023-02-17T21:11:12.454Z,74.97
2023-02-17T21:13:39.663Z,72.44
2023-02-17T21:16:07.019Z,70.95
2023-02-17T21:18:33.819Z,69.29
2023-02-17T21:21:00.745Z,70.45
2023-02-17T21:23:27.462Z,75.31
2023-02-17T21:25:54.156Z,85.54
2023-02-17T21:28:20.975Z,99.52
2023-02-17T21:30:47.999Z,100.00
2023-02-17T21:33:15.162Z,100.00
2023-02-17T21:35:41.965Z,100.00
2023-02-17T21:38:10.404Z,100.00
2023-02-17T21:40:37.050Z,100.00
2023-02-17T21:43:22.563Z,100.00
2023-02-17T21:45:49.231Z,100.00
2023-02-17T21:48:15.902Z,100.00
2023-02-17T21:50:42.670Z,100.00
2023-02-17T21:53:09.360Z,100.00
2023-02-17T21:55:36.075Z,100.00
2023-02-17T21:58:02.771Z,100.00
2023-02-17T22:00:29.401Z,100.00
2023-02-17T22:02:56.043Z,100.00
2023-02-17T22:05:22.754Z,100.00
2023-02-17T22:07:51.007Z,100.00
2023-02-17T22:10:17.924Z,100.00
2023-02-17T22:12:44.694Z,100.00
2023-02-17T22:15:11.611Z,100.00
2023-02-17T22:17:38.247Z,100.00
2023-02-17T22:20:05.428Z,100.00
2023-02-17T22:22:32.047Z,100.00
2023-02-17T22:24:58.730Z,100.00
2023-02-17T22:27:25.579Z,100.00
2023-02-17T22:29:52.271Z,100.00
2023-02-17T22:32:18.985Z,100.00
2023-02-17T22:34:45.639Z,100.00
2023-02-17T22:37:12.333Z,100.00
2023-02-17T22:39:39.015Z,100.00
2023-02-17T22:42:06.865Z,100.00
2023-02-17T22:44:33.621Z,100.00
2023-02-17T22:47:00.306Z,100.00
2023-02-17T22:49:28.079Z,100.00
2023-02-17T22:51:54.715Z,100.00
2023-02-17T22:54:21.428Z,100.00
2023-02-17T22:56:48.094Z,100.00
2023-02-17T22:59:14.710Z,100.00
2023-02-17T23:01:41.369Z,100.00
2023-02-17T23:04:08.431Z,100.00
2023-02-17T23:06:37.457Z,100.00
2023-02-17T23:09:06.089Z,100.00
2023-02-17T23:11:50.134Z,100.00
2023-02-17T23:14:21.116Z,100.00
2023-02-17T23:16:47.930Z,100.00
2023-02-17T23:19:18.649Z,100.00
2023-02-17T23:21:47.626Z,100.00
2023-02-17T23:24:15.818Z,100.00
2023-02-17T23:26:42.872Z,100.00
2023-02-17T23:29:10.145Z,100.00
2023-02-17T23:31:38.064Z,100.00
2023-02-17T23:34:05.866Z,100.00
2023-02-17T23:36:32.529Z,100.00
2023-02-17T23:39:00.771Z,100.00
2023-02-17T23:41:28.187Z,100.00
2023-02-17T23:43:54.885Z,100.00
2023-02-17T23:46:21.741Z,100.00
2023-02-17T23:48:48.673Z,100.00
2023-02-17T23:51:17.726Z,100.00
2023-02-17T23:53:45.538Z,100.00
2023-02-17T23:56:16.636Z,100.00
2023-02-17T23:58:43.422Z,100.00
